Flight Track Log - Related Links

Times and Time Zones

All times are in EST time to prevent confusion due to time zone crossing. See the WBR2907 flight status page for this flight to view local times or setup timezone preferences in your user account.

Time Position Orientation Groundspeed Altitude Reporting Facility
EST Latitude Longitude Course Direction KTS MPH feet Rate Location/Type
Sat 08:36:57 AM 40.7344 -91.1094 164° South 89 102 2,700  Level Chicago Center
Sat 08:37:00 AM 40.5087 -91.0208 163° South  Level Estimated
Sat 08:37:58 AM 40.7061 -91.0961 160° South 104 120 3,900  Level Chicago Center
Sat 08:38:00 AM 40.4697 -91.0049 163° South  Level FlightAware Approximate
Sat 08:38:59 AM 40.6778 -91.0878 167° South 104 120 4,800  Level Chicago Center
Sat 08:39:00 AM 40.4305 -90.9901 164° South  Level Estimated
Sat 08:40:00 AM 40.3913 -90.9751 164° South  Level FlightAware Approximate
Sat 08:40:00 AM 40.6492 -91.0747 161° South 107 123 5,900  Level Chicago Center
Sat 08:41:00 AM 40.3520 -90.9602 164° South  Level FlightAware Approximate
Sat 08:41:02 AM 40.6200 -91.0625 162° South 109 125 6,900  Level Chicago Center
Sat 08:42:00 AM 40.3128 -90.9453 164° South  Level FlightAware Approximate
Sat 08:42:03 AM 40.5889 -91.0486 161° South 114 131 7,400  Level Chicago Center
Sat 08:43:04 AM 40.5533 -91.0350 164° South 125 144 8,200 689 Climbing Chicago Center
Sat 08:44:05 AM 40.5156 -91.0239 167° South 133 153 8,800 393 Climbing Chicago Center
Sat 08:45:06 AM 40.4722 -91.0097 166° South 148 170 9,000 98 Climbing Chicago Center
Sat 08:46:07 AM 40.4256 -90.9933 165° South 164 189 9,000  Level Chicago Center
Sat 08:47:08 AM 40.3692 -90.9706 163° South 173 199 9,000  Level Chicago Center
Sat 08:48:09 AM 40.3244 -90.9514 162° South 171 197 9,000 49 Level Chicago Center
Sat 08:49:10 AM 40.2797 -90.9358 165° South 168 193 9,100 49 Climbing Chicago Center
Sat 08:50:11 AM 40.2344 -90.9200 165° South 168 193 9,100  Level Chicago Center
Sat 08:51:12 AM 40.1875 -90.9058 167° South 171 197 9,100  Level Chicago Center
Sat 08:52:14 AM 40.1447 -90.8886 163° South 173 199 9,100  Level Chicago Center
Sat 08:53:15 AM 40.0972 -90.8731 166° South 175 201 9,100  Level Chicago Center
Sat 08:54:16 AM 40.0400 -90.8567 168° South 176 203 9,100 -49 Level Chicago Center
Sat 08:55:17 AM 39.9933 -90.8389 164° South 175 201 9,000 -49 Descending Chicago Center
Sat 08:56:18 AM 39.9461 -90.8217 164° South 177 204 9,000  Level Chicago Center
Sat 08:57:19 AM 39.8994 -90.8069 166° South 175 201 9,000  Level Chicago Center
Sat 08:58:21 AM 39.8531 -90.7906 165° South 173 199 9,000  Level Chicago Center
Sat 08:59:22 AM 39.8067 -90.7739 165° South 173 199 9,000  Level Chicago Center
Sat 09:00:48 AM 39.7383 -90.7414 160° South 177 204 9,000 -41 Level Kansas City Center
Sat 09:01:49 AM 39.6917 -90.7269 167° South 174 200 8,900  Descending Kansas City Center
Sat 09:02:50 AM 39.6444 -90.7106 165° South 175 201 9,000 49 Climbing Kansas City Center
Sat 09:03:51 AM 39.5989 -90.6881 159° South 175 201 9,000 49 Level Kansas City Center
Sat 09:04:52 AM 39.5528 -90.6686 162° South 175 201 9,100 50 Climbing Kansas City Center
Sat 09:05:52 AM 39.5061 -90.6481 161° South 176 203 9,100  Level Kansas City Center
Sat 09:06:53 AM 39.4597 -90.6306 164° South 175 201 9,100  Level Kansas City Center
Sat 09:07:54 AM 39.4117 -90.6136 165° South 176 203 9,100  Level Kansas City Center
Sat 09:08:55 AM 39.3558 -90.5914 163° South 176 203 9,100  Level Kansas City Center
Sat 09:09:56 AM 39.3086 -90.5739 164° South 177 204 9,100  Level Kansas City Center
Sat 09:10:57 AM 39.2611 -90.5558 164° South 177 204 9,100  Level Kansas City Center
Sat 09:11:58 AM 39.2131 -90.5361 162° South 179 206 9,100  Level Kansas City Center
Sat 09:12:58 AM 39.1656 -90.5169 163° South 179 206 9,100  Level Kansas City Center
Sat 09:13:59 AM 39.1172 -90.5022 167° South 178 205 9,100  Level Kansas City Center
Sat 09:15:00 AM 39.0700 -90.4875 166° South 176 203 9,100  Level Kansas City Center
Sat 09:16:01 AM 39.0228 -90.4708 165° South 176 203 9,100  Level Kansas City Center
Sat 09:17:02 AM 38.9756 -90.4536 164° South 176 203 9,100 -49 Level Kansas City Center
Sat 09:18:03 AM 38.9278 -90.4361 164° South 178 205 9,000 -492 Descending Kansas City Center
Sat 09:19:04 AM 38.8833 -90.4419 186° South 163 188 8,100 -1,082 Descending Kansas City Center
Sat 09:20:05 AM 38.8397 -90.4600 198° South 163 188 6,800 -1,230 Descending Kansas City Center
Sat 09:21:06 AM 38.8042 -90.4808 205° Southwest 154 177 5,600 -1,328 Descending Kansas City Center
Sat 09:22:07 AM 38.7786 -90.5153 226° Southwest 136 157 4,100 -1,190 Descending Kansas City Center
Sat 09:23:07 AM 38.8017 -90.5022 24° Northeast 134 154 3,200 -843 Descending Kansas City Center
Sat 09:24:08 AM 38.7914 -90.4572 106° East 132 152 2,400 -787 Descending Kansas City Center
Sat 09:25:09 AM 38.7747 -90.4208 120° Southeast 123 142 1,600 -738 Descending Kansas City Center
Sat 09:26:10 AM 38.7583 -90.3883 123° Southeast 114 131 900 -689 Descending Kansas City Center
Sat 09:28:00 AM 38.7487 -90.3700 131° Southeast  Level Estimated
Sat 09:35:00 AM 38.7487 -90.3700 131° Southeast  Level Estimated

Login

Don't have an account? Register now (free) for customized features, flight alerts, and more!